DNMMDIAP

Guest
Details From DNMM - Lagos Murtala Muhammed
To DIAP - Abidjan Felix Houphouet Boigny Intl
Flight Number -
Tags Generated
Created
Modified
Stats Distance 443 nm / 821 km
Max Altitude 0 ft / 0 m
Waypoints 4
Social Downloads 1
Likes 0
Share VATSIM

Download

Looking for another format? Having issues loading an existing format? Contact us
Advertisement - Login to hide

Notes

Generated

Route

DNMM AA AD DIAP

ID Type Via Altitude Latitude Longitude Leg Dist Tot Dist Heading (true) Name
O DNMM APT - 0 ft / 0 m 6.59701˚ 3.32914˚ - 0 nm - -
AA NDB - 0 ft / 0 m 5.67617˚ -0.13803˚ 214 nm 214 nm 255° / 255° ACCRA NDB
AD VOR - 0 ft / 0 m 5.27719˚ -3.91931˚ 227 nm 441 nm 264° / 264° ABIDJAN VOR-DME
O DIAP APT - 0 ft / 0 m 5.24885˚ -3.93145˚ 1 nm 443 nm 203° / 203° -

Altitude Profile

Advertisement - Login to hide

Weather


0- 5 10 15 20 25 30 35+ Temperature / ° C

Clouds and Precipitation
Forecast for 2017-12-13 06:00 UTC. Updated 40 minutes ago

Ground ~20,000 ft ~40,000 ft Winds

DNMM

Details ICAO DNMM (LOS)
Name Lagos Murtala Muhammed
Region Nigeria
Timezone Africa/Lagos (UTC+1.0)
Stats Elevation 135 ft / 41 m (AMSL)
Location 6.577380° 3.321347°
Runways 2
Magnetic Variation 2.226° W

METAR

DNMM 130100Z VRB02KT 1400 HZ NSC 26/24 Q1013 NOSIG

Decode

TAF

TAF DNMM 122130Z 1300/1406 VRB02KT 1600 HZ NSC TEMPO 1300/1306 3000

Decode

Departure Runways

ID Width Length Bearing (true) Bearing (mag) Surface Threshold Offset Overrun Length
18L 148 ft / 45 m 9,049 ft / 2,758 m 180.00° 182.23° Asphalt 300 ft / 91 m 0 ft / 0 m
18R 197 ft / 60 m 12,867 ft / 3,922 m 180.00° 182.23° Asphalt 600 ft / 183 m 0 ft / 0 m
36L 197 ft / 60 m 12,867 ft / 3,922 m 0.00° 2.23° Asphalt 600 ft / 183 m 0 ft / 0 m
36R 148 ft / 45 m 9,049 ft / 2,758 m 0.00° 2.23° Asphalt 300 ft / 91 m 0 ft / 0 m

DIAP

Details ICAO DIAP (ABJ)
Name Abidjan Felix Houphouet Boigny Intl
Region Côte d'Ivoire
Timezone Africa/Abidjan (UTC+0.0)
Stats Elevation 21 ft / 6 m (AMSL)
Location 5.261386° -3.926296°
Runways 1
Magnetic Variation 4.683° W

METAR

DIAP 130200Z 25002KT 3500 HZ NSC 27/25 Q1011 NOSIG

Decode

TAF

TAF DIAP 122300Z 1300/1406 24008KT 3500 HZ NSC BECMG 1306/1309 04004KT 4000 HZ BECMG 1315/1318 19004KT 6000 NSC

Decode

Destination Runways

ID Width Length Bearing (true) Bearing (mag) Surface Threshold Offset Overrun Length
03 164 ft / 50 m 9,889 ft / 3,014 m 22.27° 26.95° Asphalt 0 ft / 0 m 197 ft / 60 m
21 164 ft / 50 m 9,889 ft / 3,014 m 202.27° 206.95° Asphalt 0 ft / 0 m 328 ft / 100 m

Approach Navaids

Runway Type Ident Frequency Range Bearing (true) Bearing (mag) Slope Elevation
21 Localiser AN 110.30 MHz 18 nm / 33 km 201.45° 206.14° - 13 ft / 4 m (AMSL)
21 Glidescope AN 110.30 MHz 10 nm / 19 km 202.27° 206.95° 3.00° 24 ft / 7 m (AMSL)
21 DME AN 110.30 MHz 18 nm / 33 km - - - 24 ft / 7 m (AMSL)

Popular Alternatives